createdAt,value
2022-12-04T00:02:09.118Z,0.14
2022-12-04T00:07:11.138Z,0.15
2022-12-04T00:12:12.752Z,0.1
2022-12-04T00:17:14.516Z,0.13
2022-12-04T00:22:16.408Z,0.14
2022-12-04T00:27:18.456Z,0.07
2022-12-04T00:32:20.408Z,0.03
2022-12-04T00:37:21.764Z,0.04
2022-12-04T00:42:23.779Z,0.07
2022-12-04T00:47:25.583Z,0.16
2022-12-04T00:52:27.472Z,0.18
2022-12-04T00:57:29.623Z,0.12
2022-12-04T01:02:31.333Z,0.13
2022-12-04T01:07:32.640Z,0.17
2022-12-04T01:12:34.625Z,0.12
2022-12-04T01:17:36.150Z,0.15
2022-12-04T01:22:38.181Z,0.04
2022-12-04T01:27:39.514Z,-0.01
2022-12-04T01:32:40.957Z,-0.02
2022-12-04T01:37:42.966Z,0.03
2022-12-04T01:42:45.085Z,0.05
2022-12-04T01:47:46.603Z,0.02
2022-12-04T01:52:48.196Z,-0.03
2022-12-04T01:57:50.174Z,0.05
2022-12-04T02:02:52.345Z,0.1
2022-12-04T02:07:53.964Z,0.11
2022-12-04T02:12:55.657Z,0.05
2022-12-04T02:17:57.457Z,0.06
2022-12-04T02:22:59.323Z,0.1
2022-12-04T02:28:00.896Z,0.06
2022-12-04T02:33:02.100Z,0.05
2022-12-04T02:38:03.700Z,0.03
2022-12-04T02:43:10.953Z,0.06
2022-12-04T02:48:06.851Z,0.15
2022-12-04T02:53:08.247Z,0.17
2022-12-04T02:58:09.497Z,0.19
2022-12-04T03:03:10.984Z,0.17
2022-12-04T03:08:12.654Z,0.27
2022-12-04T03:13:14.619Z,0.3
2022-12-04T03:18:15.810Z,0.25
2022-12-04T03:23:17.723Z,0.19
2022-12-04T03:28:19.647Z,0.13
2022-12-04T03:33:21.663Z,0.18
2022-12-04T03:38:23.569Z,0.2
2022-12-04T03:43:25.596Z,0.18
2022-12-04T03:48:27.052Z,0.18
2022-12-04T03:53:28.497Z,0.2
2022-12-04T03:58:30.365Z,0.26
2022-12-04T04:03:31.754Z,0.22
2022-12-04T04:08:33.715Z,0.11
2022-12-04T04:13:35.785Z,0.09
2022-12-04T04:18:37.758Z,0.17
2022-12-04T04:23:39.572Z,0.29
2022-12-04T04:28:40.856Z,0.37
2022-12-04T04:33:42.077Z,0.4
2022-12-04T04:38:43.924Z,0.41
2022-12-04T04:43:45.308Z,0.43
2022-12-04T04:48:47.070Z,0.28
2022-12-04T04:53:48.862Z,0.32
2022-12-04T04:58:50.536Z,0.37
2022-12-04T05:03:52.489Z,0.41
2022-12-04T05:08:54.049Z,0.42
2022-12-04T05:13:55.547Z,0.5
2022-12-04T05:18:57.410Z,0.52
2022-12-04T05:23:59.345Z,0.41
2022-12-04T05:29:01.385Z,0.4
2022-12-04T05:34:03.471Z,0.45
2022-12-04T05:39:05.513Z,0.42
2022-12-04T05:44:07.577Z,0.39
2022-12-04T05:49:09.625Z,0.39
2022-12-04T05:54:11.337Z,0.39
2022-12-04T05:59:13.099Z,0.46
2022-12-04T06:04:15.118Z,0.58
2022-12-04T06:09:16.999Z,0.64
2022-12-04T06:14:18.753Z,0.65
2022-12-04T06:19:20.135Z,0.72
2022-12-04T06:24:21.347Z,0.8
2022-12-04T06:29:22.941Z,0.78
2022-12-04T06:34:24.280Z,0.82
2022-12-04T06:39:26.314Z,0.81
2022-12-04T06:44:27.675Z,0.76
2022-12-04T06:49:29.490Z,0.82
2022-12-04T06:54:31.021Z,0.81
2022-12-04T06:54:37.343Z,0.82
2022-12-04T06:59:39.536Z,0.81
2022-12-04T07:04:40.940Z,0.81
2022-12-04T07:09:42.802Z,0.85
2022-12-04T07:14:44.720Z,0.93
2022-12-04T07:19:46.733Z,0.96
2022-12-04T07:24:48.448Z,0.96
2022-12-04T07:29:49.779Z,0.95
2022-12-04T07:34:51.813Z,1
2022-12-04T07:39:53.394Z,1.07
2022-12-04T07:44:55.120Z,1.08
2022-12-04T07:49:57.414Z,1.1
2022-12-04T07:54:58.532Z,1.12
2022-12-04T08:00:00.377Z,1.2
2022-12-04T08:05:02.209Z,1.3
2022-12-04T08:10:03.621Z,1.34
2022-12-04T08:15:05.881Z,1.37
2022-12-04T08:20:07.348Z,1.45
2022-12-04T08:25:08.761Z,1.55
2022-12-04T08:30:10.490Z,1.58
2022-12-04T08:35:11.961Z,1.52
2022-12-04T08:40:13.821Z,1.56
2022-12-04T08:45:15.886Z,1.58
2022-12-04T08:50:17.857Z,1.62
2022-12-04T08:55:19.685Z,1.63
2022-12-04T09:00:21.050Z,1.61
2022-12-04T09:05:22.542Z,1.64
2022-12-04T09:10:24.057Z,1.7
2022-12-04T09:15:26.247Z,1.77
2022-12-04T09:20:27.832Z,1.8
2022-12-04T09:25:29.160Z,1.77
2022-12-04T09:30:30.986Z,1.8
2022-12-04T09:35:32.968Z,1.73
2022-12-04T09:40:37.841Z,1.83
2022-12-04T09:45:35.807Z,1.89
2022-12-04T09:50:37.122Z,1.89
2022-12-04T09:55:39.195Z,2.02
2022-12-04T10:00:41.247Z,2.15
2022-12-04T10:05:43.067Z,2.25
2022-12-04T10:10:45.179Z,2.3
2022-12-04T10:15:46.602Z,2.34
2022-12-04T10:30:51.320Z,2.55
2022-12-04T11:01:00.563Z,2.65
2022-12-04T11:11:03.774Z,2.74
2022-12-04T11:16:05.398Z,2.66
2022-12-04T11:26:08.193Z,2.59
2022-12-04T11:31:10.111Z,2.63
2022-12-04T11:41:13.389Z,2.57
2022-12-04T11:46:14.840Z,2.57
2022-12-04T11:51:16.586Z,2.64
2022-12-04T11:56:18.718Z,2.63
2022-12-04T12:01:20.237Z,2.55
2022-12-04T12:06:21.530Z,2.6
2022-12-04T12:11:23.242Z,2.69
2022-12-04T12:16:25.130Z,2.79
2022-12-04T12:21:27.114Z,2.86
2022-12-04T12:26:29.057Z,2.9
2022-12-04T12:31:31.237Z,2.98
2022-12-04T12:36:33.015Z,3.05
2022-12-04T12:41:34.908Z,3.04
2022-12-04T12:46:36.656Z,3.04
2022-12-04T12:51:37.888Z,3.01
2022-12-04T12:56:42.280Z,3.03
2022-12-04T13:01:41.197Z,3.06
2022-12-04T13:06:43.012Z,3.05
2022-12-04T13:11:45.016Z,3.06
2022-12-04T13:16:46.363Z,3.04
2022-12-04T13:21:47.956Z,3.02
2022-12-04T13:26:49.976Z,2.96
2022-12-04T13:31:51.945Z,2.8
2022-12-04T13:36:54.049Z,2.82
2022-12-04T13:41:55.860Z,2.85
2022-12-04T13:46:57.354Z,2.86
2022-12-04T13:51:59.096Z,2.86
2022-12-04T13:57:00.823Z,2.92
2022-12-04T14:02:07.895Z,2.97
2022-12-04T14:07:04.679Z,2.99
2022-12-04T14:12:06.450Z,3
2022-12-04T14:17:08.264Z,3.02
2022-12-04T14:22:09.415Z,3.07
2022-12-04T14:27:12.046Z,3.13
2022-12-04T14:32:12.407Z,3.17
2022-12-04T14:37:14.549Z,3.17
2022-12-04T14:42:16.061Z,3.18
2022-12-04T14:47:18.120Z,3.22
2022-12-04T14:52:20.143Z,3.24
2022-12-04T14:57:21.615Z,3.25
2022-12-04T15:02:23.539Z,3.25
2022-12-04T15:07:24.816Z,3.27
2022-12-04T15:12:26.525Z,3.29
2022-12-04T15:17:28.818Z,3.28
2022-12-04T15:22:30.450Z,3.26
2022-12-04T15:27:32.867Z,3.28
2022-12-04T15:32:33.073Z,3.33
2022-12-04T15:37:34.656Z,3.35
2022-12-04T15:42:36.690Z,3.3
2022-12-04T15:47:38.862Z,3.33
2022-12-04T15:52:40.556Z,3.37
2022-12-04T15:57:41.949Z,3.41
2022-12-04T16:02:43.665Z,3.35
2022-12-04T16:07:45.609Z,3.33
2022-12-04T16:12:47.308Z,3.35
2022-12-04T16:17:49.531Z,3.34
2022-12-04T16:22:51.184Z,3.32
2022-12-04T16:27:53.037Z,3.26
2022-12-04T16:32:55.163Z,3.27
2022-12-04T16:37:56.688Z,3.3
2022-12-04T16:42:58.300Z,3.26
2022-12-04T16:47:59.999Z,3.2
2022-12-04T16:53:02.018Z,3.2
2022-12-04T16:58:03.623Z,3.21
2022-12-04T17:03:05.348Z,3.21
2022-12-04T17:08:07.582Z,3.17
2022-12-04T17:13:09.250Z,3.13
2022-12-04T17:18:14.013Z,3.13
2022-12-04T17:23:12.503Z,3.13
2022-12-04T17:28:13.980Z,3.1
2022-12-04T17:33:15.529Z,3.06
2022-12-04T17:38:16.750Z,3.08
2022-12-04T17:43:21.988Z,3.09
2022-12-04T17:48:20.384Z,3.08
2022-12-04T17:53:21.586Z,3.01
2022-12-04T17:58:23.617Z,3.01
2022-12-04T18:03:25.676Z,3.01
2022-12-04T18:08:27.455Z,3.02
2022-12-04T18:13:28.871Z,3.02
2022-12-04T18:18:30.647Z,2.96
2022-12-04T18:23:32.835Z,2.98
2022-12-04T18:28:34.146Z,3.02
2022-12-04T18:33:36.327Z,3
2022-12-04T18:38:37.760Z,2.96
2022-12-04T18:43:39.095Z,2.96
2022-12-04T18:48:40.378Z,2.99
2022-12-04T18:53:41.937Z,2.99
2022-12-04T18:58:43.698Z,2.95
2022-12-04T19:03:45.533Z,2.92
2022-12-04T19:08:47.635Z,2.93
2022-12-04T19:13:48.920Z,2.96
2022-12-04T19:18:50.721Z,2.91
2022-12-04T19:23:52.750Z,2.84
2022-12-04T19:28:54.721Z,2.84
2022-12-04T19:33:56.358Z,2.87
2022-12-04T19:38:57.966Z,2.86
2022-12-04T19:43:59.328Z,2.79
2022-12-04T19:49:01.264Z,2.75
2022-12-04T19:54:02.912Z,2.8
2022-12-04T19:59:04.778Z,2.77
2022-12-04T20:04:06.230Z,2.74
2022-12-04T20:09:07.507Z,2.71
2022-12-04T20:14:09.232Z,2.72
2022-12-04T20:19:10.595Z,2.78
2022-12-04T20:24:12.447Z,2.77
2022-12-04T20:29:13.681Z,2.7
2022-12-04T20:34:15.219Z,2.72
2022-12-04T20:39:17.396Z,2.77
2022-12-04T20:44:18.825Z,2.77
2022-12-04T20:49:22.241Z,2.7
2022-12-04T20:54:21.997Z,2.7
2022-12-04T20:59:23.828Z,2.73
2022-12-04T21:04:25.851Z,2.76
2022-12-04T21:09:27.958Z,2.74
2022-12-04T21:14:29.203Z,2.71
2022-12-04T21:19:31.275Z,2.69
2022-12-04T21:24:32.933Z,2.74
2022-12-04T21:29:34.223Z,2.7
2022-12-04T21:34:36.265Z,2.62
2022-12-04T21:39:37.899Z,2.59
2022-12-04T21:44:39.479Z,2.61
2022-12-04T21:49:41.523Z,2.64
2022-12-04T21:54:43.591Z,2.6
2022-12-04T21:59:45.012Z,2.54
2022-12-04T22:04:46.673Z,2.52
2022-12-04T22:09:48.206Z,2.57
2022-12-04T22:14:50.306Z,2.53
2022-12-04T22:19:51.709Z,2.44
2022-12-04T22:24:52.890Z,2.43
2022-12-04T22:29:54.647Z,2.45
2022-12-04T22:34:56.394Z,2.4
2022-12-04T22:39:58.526Z,2.38
2022-12-04T22:44:59.852Z,2.28
2022-12-04T22:50:01.142Z,2.23
2022-12-04T22:55:03.129Z,2.26
2022-12-04T23:15:09.729Z,2.26
2022-12-04T23:20:11.546Z,2.31
2022-12-04T23:25:13.160Z,2.23
2022-12-04T23:30:15.205Z,2.21
2022-12-04T23:35:16.554Z,2.22
2022-12-04T23:40:18.325Z,2.25
2022-12-04T23:40:24.647Z,2.24
2022-12-04T23:45:26.188Z,2.21
2022-12-04T23:50:28.251Z,2.15
2022-12-04T23:55:33.943Z,2.14
